createdAt,value
2019-05-26T00:02:46.802Z,96113.71
2019-05-26T00:05:36.596Z,96130.73
2019-05-26T00:08:26.408Z,96131.09
2019-05-26T00:11:16.246Z,96130.45
2019-05-26T00:14:06.178Z,96124.75
2019-05-26T00:16:55.956Z,96128.91
2019-05-26T00:19:45.754Z,96125.25
2019-05-26T00:22:35.540Z,96108.53
2019-05-26T00:25:25.291Z,96121.95
2019-05-26T00:31:37.808Z,96117.64
2019-05-26T00:34:19.896Z,96109.97
2019-05-26T00:37:09.611Z,96105.59
2019-05-26T00:39:59.312Z,96072.05
2019-05-26T00:42:49.099Z,96089.23
2019-05-26T00:45:31.995Z,96094.34
2019-05-26T00:48:21.805Z,96083.65
2019-05-26T00:51:11.542Z,96081.00
2019-05-26T00:54:01.523Z,96075.85
2019-05-26T00:56:51.278Z,96084.59
2019-05-26T00:59:41.071Z,96077.36
2019-05-26T01:02:30.870Z,96080.71
2019-05-26T01:05:13.267Z,96067.83
2019-05-26T01:08:06.337Z,96070.80
2019-05-26T01:10:47.275Z,96076.56
2019-05-26T01:13:37.096Z,96054.30
2019-05-26T01:16:26.847Z,96080.35
2019-05-26T01:19:09.753Z,96073.00
2019-05-26T01:21:59.903Z,96074.00
2019-05-26T01:24:49.755Z,96071.13
2019-05-26T01:27:39.504Z,96055.38
2019-05-26T01:31:14.377Z,96079.88
2019-05-26T01:34:04.111Z,96079.70
2019-05-26T01:36:46.594Z,96076.45
2019-05-26T01:39:36.737Z,96082.08
2019-05-26T01:42:19.089Z,96060.36
2019-05-26T01:45:09.141Z,96089.58
2019-05-26T01:47:51.733Z,96070.14
2019-05-26T01:50:41.500Z,96087.85
2019-05-26T01:53:23.720Z,96090.20
2019-05-26T01:56:13.423Z,96087.63
2019-05-26T01:58:55.979Z,96070.50
2019-05-26T02:02:06.290Z,96085.11
2019-05-26T02:04:49.260Z,96085.13
2019-05-26T02:07:39.027Z,96090.24
2019-05-26T02:10:23.248Z,96072.86
2019-05-26T02:13:13.132Z,96080.92
2019-05-26T02:15:55.860Z,96084.75
2019-05-26T02:18:45.787Z,96082.17
2019-05-26T02:21:27.936Z,96089.29
2019-05-26T02:24:17.725Z,96084.75
2019-05-26T02:30:04.587Z,96079.28
2019-05-26T02:35:55.804Z,96079.66
2019-05-26T02:39:01.203Z,96084.50
2019-05-26T02:41:29.487Z,96057.23
2019-05-26T02:44:19.201Z,96090.46
2019-05-26T02:47:01.542Z,96091.26
2019-05-26T02:49:51.281Z,96091.60
2019-05-26T02:52:34.211Z,96071.03
2019-05-26T02:55:44.529Z,96094.45
2019-05-26T02:58:28.386Z,96092.67
2019-05-26T03:01:18.153Z,96096.61
2019-05-26T03:06:52.405Z,96101.13
2019-05-26T03:16:00.800Z,96098.71
2019-05-26T03:19:11.874Z,96100.45
2019-05-26T03:22:01.800Z,96101.81
2019-05-26T03:28:07.557Z,96084.29
2019-05-26T03:30:57.599Z,96087.23
2019-05-26T03:33:49.133Z,96085.55
2019-05-26T03:39:44.466Z,96087.93
2019-05-26T03:42:26.412Z,96091.10
2019-05-26T03:45:08.775Z,96089.20
2019-05-26T03:47:58.472Z,96097.41
2019-05-26T03:50:48.202Z,96093.02
2019-05-26T03:53:30.587Z,96096.45
2019-05-26T03:56:39.400Z,96087.65
2019-05-26T03:59:21.955Z,96081.78
2019-05-26T04:02:11.699Z,96104.06
2019-05-26T04:04:53.586Z,96110.30
2019-05-26T04:07:43.312Z,96114.42
2019-05-26T04:10:25.550Z,96095.12
2019-05-26T04:13:15.690Z,96116.33
2019-05-26T04:15:58.621Z,96120.41
2019-05-26T04:18:48.344Z,96120.38
2019-05-26T04:21:38.076Z,96125.43
2019-05-26T04:24:20.358Z,96090.47
2019-05-26T04:27:10.078Z,96115.16
2019-05-26T04:29:52.616Z,96093.34
2019-05-26T04:32:57.859Z,96099.59
2019-05-26T04:35:40.684Z,96071.71
2019-05-26T04:38:30.445Z,96084.45
2019-05-26T04:41:12.912Z,96068.33
2019-05-26T04:44:02.665Z,96086.73
2019-05-26T04:46:44.796Z,96085.60
2019-05-26T04:49:37.506Z,96082.81
2019-05-26T04:52:18.888Z,96068.23
2019-05-26T04:55:08.910Z,96081.27
2019-05-26T04:57:51.295Z,96083.23
2019-05-26T05:00:41.070Z,96088.73
2019-05-26T05:03:23.632Z,96071.80
2019-05-26T05:06:13.327Z,96088.02
2019-05-26T05:09:03.126Z,96081.56
2019-05-26T05:11:45.914Z,96092.41
2019-05-26T05:14:35.621Z,96096.34
2019-05-26T05:20:25.229Z,96096.86
2019-05-26T05:22:55.889Z,96099.67
2019-05-26T05:25:45.658Z,96100.81
2019-05-26T05:28:28.557Z,96100.98
2019-05-26T05:31:18.309Z,96072.88
2019-05-26T05:34:08.012Z,96102.73
2019-05-26T05:36:49.998Z,96102.03
2019-05-26T05:39:39.720Z,96104.48
2019-05-26T05:42:29.412Z,96101.86
2019-05-26T05:45:19.249Z,96103.48
2019-05-26T05:48:01.685Z,96104.36
2019-05-26T05:50:51.498Z,96085.25
2019-05-26T05:53:33.952Z,96083.34
2019-05-26T05:56:23.694Z,96087.22
2019-05-26T05:59:06.148Z,96104.09
2019-05-26T06:01:55.858Z,96108.36
2019-05-26T06:04:37.886Z,96108.14
2019-05-26T06:07:27.618Z,96117.35
2019-05-26T06:10:10.198Z,96114.02
2019-05-26T06:12:59.908Z,96117.16
2019-05-26T06:15:43.281Z,96121.16
2019-05-26T06:18:33.145Z,96126.91
2019-05-26T06:21:15.538Z,96125.77
2019-05-26T06:24:05.408Z,96123.83
2019-05-26T06:26:47.761Z,96112.92
2019-05-26T06:29:37.654Z,96129.08
2019-05-26T06:32:27.455Z,96136.31
2019-05-26T06:35:17.231Z,96137.20
2019-05-26T06:37:47.964Z,96133.77
2019-05-26T06:40:37.970Z,96136.99
2019-05-26T06:43:20.895Z,96143.41
2019-05-26T06:46:10.666Z,96144.66
2019-05-26T06:49:00.444Z,96149.33
2019-05-26T06:51:50.288Z,96150.50
2019-05-26T06:54:40.056Z,96146.59
2019-05-26T06:57:30.132Z,96142.73
2019-05-26T07:00:39.354Z,96139.66
2019-05-26T07:03:21.683Z,96125.86
2019-05-26T07:06:11.478Z,96146.16
2019-05-26T07:09:01.244Z,96142.16
2019-05-26T07:11:59.724Z,96142.92
2019-05-26T07:14:36.098Z,96116.99
2019-05-26T07:17:25.881Z,96134.20
2019-05-26T07:20:18.130Z,96126.02
2019-05-26T07:23:08.690Z,96121.11
2019-05-26T07:25:52.358Z,96136.48
2019-05-26T07:34:18.456Z,96133.67
2019-05-26T07:37:08.209Z,96129.15
2019-05-26T07:39:58.026Z,96130.91
2019-05-26T07:45:54.132Z,96124.68
2019-05-26T07:48:36.747Z,96128.57
2019-05-26T07:51:26.659Z,96131.94
2019-05-26T07:54:22.735Z,96117.59
2019-05-26T07:57:00.913Z,96113.86
2019-05-26T07:59:42.981Z,96082.72
2019-05-26T08:02:32.709Z,96113.02
2019-05-26T08:05:15.239Z,96102.45
2019-05-26T08:08:12.610Z,96102.67
2019-05-26T08:10:50.831Z,96106.95
2019-05-26T08:13:41.173Z,96089.25
2019-05-26T08:16:23.853Z,96108.03
2019-05-26T08:19:14.157Z,96108.58
2019-05-26T08:22:03.243Z,96092.64
2019-05-26T08:24:34.688Z,96100.55
2019-05-26T08:27:06.077Z,96097.05
2019-05-26T08:29:37.105Z,96097.24
2019-05-26T08:32:27.025Z,96099.83
2019-05-26T08:35:09.404Z,96095.73
2019-05-26T08:37:59.153Z,96091.95
2019-05-26T08:43:44.947Z,96094.93
2019-05-26T08:46:26.983Z,96093.70
2019-05-26T08:48:58.215Z,96091.39
2019-05-26T08:57:25.345Z,96062.94
2019-05-26T09:02:58.130Z,96086.05
2019-05-26T09:08:30.346Z,96076.88
2019-05-26T09:37:51.960Z,96064.19
2019-05-26T09:43:36.286Z,96048.25
2019-05-26T09:46:26.056Z,96055.44
2019-05-26T09:49:08.507Z,96049.72
2019-05-26T09:51:58.252Z,96059.13
2019-05-26T09:54:40.828Z,96051.86
2019-05-26T09:57:31.084Z,96055.05
2019-05-26T10:00:15.994Z,96055.92
2019-05-26T10:03:05.049Z,96051.62
2019-05-26T10:05:47.148Z,96058.22
2019-05-26T10:08:56.561Z,96029.56
2019-05-26T10:11:41.972Z,96052.39
2019-05-26T10:14:32.312Z,96049.69
2019-05-26T10:17:14.890Z,96056.92
2019-05-26T10:20:06.037Z,96052.89
2019-05-26T10:22:50.502Z,96047.45
2019-05-26T10:28:37.984Z,96050.50
2019-05-26T10:31:27.727Z,96039.84
2019-05-26T10:34:09.861Z,96027.31
2019-05-26T10:37:00.143Z,96040.34
2019-05-26T10:39:45.126Z,96039.08
2019-05-26T10:42:34.897Z,96034.62
2019-05-26T10:45:17.969Z,96036.32
2019-05-26T10:48:07.762Z,96038.00
2019-05-26T10:50:50.328Z,96035.89
2019-05-26T10:53:40.636Z,96032.74
2019-05-26T10:56:24.097Z,96036.17
2019-05-26T10:59:14.418Z,96030.45
2019-05-26T11:02:04.741Z,96022.39
2019-05-26T11:04:48.117Z,96018.83
2019-05-26T11:10:32.585Z,96021.86
2019-05-26T11:13:15.767Z,96007.09
2019-05-26T11:16:06.117Z,95994.53
2019-05-26T11:18:56.391Z,96015.00
2019-05-26T11:21:46.791Z,96007.06
2019-05-26T11:24:37.048Z,96006.32
2019-05-26T11:27:20.373Z,96004.14
2019-05-26T11:33:07.225Z,95998.00
2019-05-26T11:35:57.627Z,95985.06
2019-05-26T11:38:48.023Z,95979.50
2019-05-26T11:41:38.365Z,95988.43
2019-05-26T11:44:41.158Z,95978.40
2019-05-26T11:47:23.962Z,95980.20
2019-05-26T11:53:01.720Z,95970.88
2019-05-26T11:55:53.679Z,95966.72
2019-05-26T12:01:48.284Z,95955.94
2019-05-26T12:04:31.704Z,95954.75
2019-05-26T12:07:22.064Z,95955.07
2019-05-26T12:10:32.996Z,95943.41
2019-05-26T12:13:23.516Z,95939.37
2019-05-26T12:19:17.612Z,95932.39
2019-05-26T12:22:00.330Z,95908.40
2019-05-26T12:24:50.664Z,95926.45
2019-05-26T12:27:33.314Z,95916.46
2019-05-26T12:33:39.721Z,95911.59
2019-05-26T12:36:30.104Z,95910.02
2019-05-26T12:39:20.442Z,95887.88
2019-05-26T12:42:10.887Z,95882.38
2019-05-26T12:45:01.180Z,95899.28
2019-05-26T12:47:51.496Z,95901.81
2019-05-26T12:50:34.466Z,95902.69
2019-05-26T12:53:24.805Z,95898.15
2019-05-26T12:56:08.131Z,95895.41
2019-05-26T12:58:58.814Z,95890.85
2019-05-26T13:01:42.206Z,95889.16
2019-05-26T13:04:32.576Z,95888.08
2019-05-26T13:07:15.736Z,95868.93
2019-05-26T13:10:06.668Z,95884.77
2019-05-26T13:12:49.502Z,95887.52
2019-05-26T13:15:53.080Z,95884.98
2019-05-26T13:18:36.447Z,95882.16
2019-05-26T13:21:26.748Z,95882.28
2019-05-26T13:24:10.124Z,95878.91
2019-05-26T13:27:00.488Z,95881.67
2019-05-26T13:29:43.415Z,95875.42
2019-05-26T13:32:33.740Z,95875.11
2019-05-26T13:35:24.350Z,95854.09
2019-05-26T13:38:07.827Z,95877.03
2019-05-26T13:40:58.125Z,95875.20
2019-05-26T13:43:41.337Z,95853.22
2019-05-26T13:49:39.856Z,95875.98
2019-05-26T13:52:23.227Z,95878.32
2019-05-26T14:03:45.433Z,95880.58
2019-05-26T14:06:35.730Z,95880.09
2019-05-26T14:09:20.177Z,95870.76
2019-05-26T14:12:10.493Z,95848.02
2019-05-26T14:14:53.338Z,95876.38
2019-05-26T14:17:44.129Z,95872.22
2019-05-26T14:20:37.423Z,95872.38
2019-05-26T14:23:40.990Z,95871.02
2019-05-26T14:26:12.863Z,95874.38
2019-05-26T14:29:03.162Z,95869.80
2019-05-26T14:31:46.374Z,95871.34
2019-05-26T14:34:55.788Z,95861.80
2019-05-26T14:37:38.593Z,95861.30
2019-05-26T14:40:28.989Z,95858.98
2019-05-26T14:43:11.605Z,95852.79
2019-05-26T14:46:01.269Z,95860.83
2019-05-26T14:48:44.007Z,95857.27
2019-05-26T14:51:34.309Z,95853.86
2019-05-26T14:54:17.153Z,95858.66
2019-05-26T14:57:07.479Z,95857.46
2019-05-26T14:59:50.769Z,95864.69
2019-05-26T15:02:41.047Z,95865.45
2019-05-26T15:05:24.705Z,95859.59
2019-05-26T15:08:14.975Z,95860.67
2019-05-26T15:10:57.869Z,95851.09
2019-05-26T15:13:48.157Z,95846.90
2019-05-26T15:16:31.387Z,95849.42
2019-05-26T15:19:21.711Z,95850.26
2019-05-26T15:22:04.201Z,95852.92
2019-05-26T15:24:54.502Z,95854.20
2019-05-26T15:27:37.267Z,95848.00
2019-05-26T15:30:27.653Z,95851.36
2019-05-26T15:33:11.040Z,95850.20
2019-05-26T15:36:01.323Z,95855.44
2019-05-26T15:38:44.919Z,95852.95
2019-05-26T15:41:35.254Z,95852.92
2019-05-26T15:44:18.606Z,95841.97
2019-05-26T15:47:08.952Z,95846.97
2019-05-26T15:49:59.256Z,95853.61
2019-05-26T15:52:42.288Z,95836.95
2019-05-26T15:55:46.706Z,95843.61
2019-05-26T15:58:30.553Z,95845.45
2019-05-26T16:01:20.890Z,95833.44
2019-05-26T16:04:04.440Z,95821.83
2019-05-26T16:06:54.715Z,95836.95
2019-05-26T16:09:37.560Z,95821.74
2019-05-26T16:12:27.864Z,95829.11
2019-05-26T16:15:11.198Z,95826.20
2019-05-26T16:18:01.519Z,95822.32
2019-05-26T16:20:43.980Z,95803.98
2019-05-26T16:23:34.290Z,95826.97
2019-05-26T16:26:17.101Z,95828.74
2019-05-26T16:29:07.374Z,95805.15
2019-05-26T16:31:50.380Z,95828.95
2019-05-26T16:34:40.702Z,95822.16
2019-05-26T16:37:23.434Z,95827.56
2019-05-26T16:40:13.843Z,95828.45
2019-05-26T16:42:45.137Z,95813.38
2019-05-26T16:45:56.486Z,95823.88
2019-05-26T16:48:39.472Z,95819.01
2019-05-26T16:51:29.805Z,95814.14
2019-05-26T16:54:14.606Z,95811.58
2019-05-26T16:57:05.058Z,95808.67
2019-05-26T16:59:47.667Z,95803.50
2019-05-26T17:02:37.985Z,95802.20
2019-05-26T17:05:21.215Z,95781.89
2019-05-26T17:08:11.517Z,95804.42
2019-05-26T17:10:55.069Z,95801.91
2019-05-26T17:13:45.437Z,95795.63
2019-05-26T17:16:28.865Z,95785.64
2019-05-26T17:19:19.128Z,95784.56
2019-05-26T17:22:02.077Z,95785.19
2019-05-26T17:27:48.652Z,95784.77
2019-05-26T17:30:39.017Z,95777.22
2019-05-26T17:33:29.328Z,95780.16
2019-05-26T17:36:19.629Z,95778.68
2019-05-26T17:39:02.841Z,95775.60
2019-05-26T17:41:53.187Z,95777.45
2019-05-26T17:44:35.800Z,95767.27
2019-05-26T17:47:30.333Z,95777.67
2019-05-26T17:50:10.301Z,95773.55
2019-05-26T17:53:00.631Z,95762.18
2019-05-26T17:55:44.659Z,95774.02
2019-05-26T17:58:34.957Z,95752.19
2019-05-26T18:01:17.895Z,95762.52
2019-05-26T18:04:08.235Z,95750.52
2019-05-26T18:06:52.329Z,95777.01
2019-05-26T18:09:44.547Z,95766.39
2019-05-26T18:12:27.625Z,95770.53
2019-05-26T18:15:17.945Z,95763.02
2019-05-26T18:18:01.330Z,95763.00
2019-05-26T18:20:45.517Z,95754.52
2019-05-26T18:23:35.905Z,95765.44
2019-05-26T18:26:26.251Z,95748.31
2019-05-26T18:32:20.887Z,95768.34
2019-05-26T18:35:04.097Z,95769.33
2019-05-26T18:37:54.462Z,95765.27
2019-05-26T18:40:44.844Z,95742.84
2019-05-26T18:43:35.187Z,95764.17
2019-05-26T18:46:25.551Z,95764.36
2019-05-26T18:49:35.014Z,95748.77
2019-05-26T18:52:38.501Z,95751.34
2019-05-26T18:55:20.763Z,95745.15
2019-05-26T18:58:11.104Z,95761.77
2019-05-26T19:00:54.423Z,95764.91
2019-05-26T19:03:44.150Z,95763.64
2019-05-26T19:06:26.724Z,95767.09
2019-05-26T19:09:16.483Z,95764.09
2019-05-26T19:12:03.349Z,95762.48
2019-05-26T19:14:53.087Z,95736.86
2019-05-26T19:17:37.481Z,95761.96
2019-05-26T19:20:19.830Z,95759.14
2019-05-26T19:23:09.630Z,95755.53
2019-05-26T19:25:59.420Z,95739.09
2019-05-26T19:29:08.316Z,95766.03
2019-05-26T19:31:51.194Z,95767.09
2019-05-26T19:34:41.566Z,95765.50
2019-05-26T19:37:31.318Z,95763.13
2019-05-26T19:40:13.758Z,95765.30
2019-05-26T19:42:56.052Z,95764.44
2019-05-26T19:45:46.418Z,95766.80
2019-05-26T19:48:37.311Z,95773.36
2019-05-26T19:51:21.968Z,95771.98
2019-05-26T19:54:05.350Z,95766.19
2019-05-26T19:56:55.176Z,95771.45
2019-05-26T19:59:45.559Z,95776.14
2019-05-26T20:02:35.918Z,95774.77
2019-05-26T20:05:25.689Z,95779.30
2019-05-26T20:08:15.376Z,95783.80
2019-05-26T20:10:58.517Z,95778.67
2019-05-26T20:13:48.884Z,95776.87
2019-05-26T20:16:38.666Z,95780.05
2019-05-26T20:19:47.591Z,95781.09
2019-05-26T20:22:37.399Z,95781.08
2019-05-26T20:25:24.166Z,95783.80
2019-05-26T20:30:55.310Z,95790.14
2019-05-26T20:36:39.171Z,95786.22
2019-05-26T20:39:28.972Z,95793.34
2019-05-26T20:42:18.740Z,95794.91
2019-05-26T20:45:47.843Z,95788.63
2019-05-26T20:48:32.037Z,95788.72
2019-05-26T20:51:34.741Z,95796.45
2019-05-26T20:54:17.417Z,95789.42
2019-05-26T20:57:07.166Z,95789.59
2019-05-26T20:59:50.607Z,95795.53
2019-05-26T21:02:40.351Z,95795.88
2019-05-26T21:05:23.953Z,95798.37
2019-05-26T21:08:13.718Z,95799.08
2019-05-26T21:10:55.701Z,95795.36
2019-05-26T21:13:45.459Z,95792.09
2019-05-26T21:16:29.784Z,95787.31
2019-05-26T21:19:19.502Z,95795.89
2019-05-26T21:22:01.520Z,95790.73
2019-05-26T21:25:10.345Z,95795.70
2019-05-26T21:27:54.260Z,95796.92
2019-05-26T21:33:33.616Z,95788.68
2019-05-26T21:36:23.363Z,95785.48
2019-05-26T21:39:06.605Z,95786.09
2019-05-26T21:41:58.396Z,95784.30
2019-05-26T21:44:41.599Z,95790.39
2019-05-26T21:47:31.297Z,95781.22
2019-05-26T21:50:13.933Z,95781.28
2019-05-26T21:53:03.647Z,95777.34
2019-05-26T21:55:46.531Z,95781.28
2019-05-26T21:58:36.224Z,95780.69
2019-05-26T22:01:19.168Z,95786.50
2019-05-26T22:04:08.879Z,95784.02
2019-05-26T22:06:52.772Z,95780.14
2019-05-26T22:09:42.540Z,95773.61
2019-05-26T22:12:25.239Z,95769.03
2019-05-26T22:15:15.136Z,95774.53
2019-05-26T22:17:57.117Z,95775.89
2019-05-26T22:20:46.876Z,95777.66
2019-05-26T22:23:29.654Z,95774.83
2019-05-26T22:26:19.415Z,95772.61
2019-05-26T22:29:01.944Z,95776.03
2019-05-26T22:31:51.671Z,95750.78
2019-05-26T22:34:34.298Z,95750.00
2019-05-26T22:40:18.211Z,95778.08
2019-05-26T22:42:48.880Z,95774.00
2019-05-26T22:45:19.556Z,95779.58
2019-05-26T22:48:09.276Z,95780.45
2019-05-26T22:50:58.982Z,95772.93
2019-05-26T22:53:42.243Z,95775.56
2019-05-26T22:56:32.161Z,95775.97
2019-05-26T22:59:14.288Z,95767.45
2019-05-26T23:01:46.335Z,95771.84
2019-05-26T23:04:18.652Z,95767.73
2019-05-26T23:06:49.494Z,95757.55
2019-05-26T23:09:20.130Z,95764.25
2019-05-26T23:11:50.919Z,95751.75
2019-05-26T23:14:21.538Z,95751.23
2019-05-26T23:16:52.278Z,95744.97
2019-05-26T23:39:23.946Z,95741.36
2019-05-26T23:41:54.659Z,95719.22
2019-05-26T23:44:25.423Z,95734.00
2019-05-26T23:46:56.038Z,95734.00
